»·PEaware :: N323DE KSNA-KSBA

N323DE :: KSNA-KSBA

FLIGHT INFORMATION

Flight Status: Arrived
Operator: Privately registered:
United States
More flights under this callsign
Pilot: John H. (10732)
Aircraft: Unknown
(LEG2)
More flights by this aircraft type
Origin: KSNA John Wayne-Orange Co
United States
Destination: KSBA Santa Barbara Mun
United States
More flights between these airports :: More routes between these airports
Route: +SLI V23 LAX V299 VTU VTU282R KWANG
File this flight plan on PilotEdge
Remarks: TEC route CSTP21
Altitude:
(Current/Filed)
6,000ft
Speed:
(Current/Filed)
250kts
Departed: 11-May-19 07:12 AM
Arrived: 11-May-19 07:43 AM
Distance/Time
Traveled:
108nm/0:31
Distance/Time
To Go:
Arrived

Flight Plot

Page will automatically refresh every two minutes.


Map Options




Map Legend


Flown Route
Filed Route
Departure Airport
Arrival Airport
Navaid (VOR, NDB)
Fix

Horizontal Profiles

Position Reports

Time Latitude Longitude Heading Altitude Ground
Speed
11-May-19 06:54 33.674974 -117.871512 218 59ft 0kts
11-May-19 06:55 33.674972 -117.871514 218 59ft 0kts
11-May-19 06:56 33.674969 -117.871517 218 59ft 0kts
11-May-19 06:57 33.674966 -117.871519 218 59ft 0kts
11-May-19 06:58 33.674964 -117.871522 218 59ft 0kts
11-May-19 06:59 33.674961 -117.871524 217 59ft 0kts
11-May-19 07:00 33.674959 -117.871526 217 59ft 0kts
11-May-19 07:01 33.674958 -117.871527 217 59ft 0kts
11-May-19 07:02 33.674958 -117.871527 217 59ft 0kts
11-May-19 07:03 33.674958 -117.871527 217 59ft 0kts
11-May-19 07:04 33.674958 -117.871527 217 59ft 0kts
11-May-19 07:05 33.674958 -117.871527 217 59ft 0kts
11-May-19 07:06 33.674958 -117.871527 217 59ft 0kts
11-May-19 07:07 33.674958 -117.871527 217 59ft 0kts
11-May-19 07:08 33.674958 -117.871527 217 59ft 0kts
11-May-19 07:09 33.675115 -117.870756 27 59ft 17kts
11-May-19 07:10 33.680769 -117.866312 116 59ft 0kts
11-May-19 07:11 33.678811 -117.866829 206 59ft 71kts
11-May-19 07:12 33.648863 -117.895797 225 1814ft 141kts
11-May-19 07:13 33.619174 -117.929564 222 3333ft 159kts
11-May-19 07:14 33.587499 -117.965232 221 5099ft 161kts
11-May-19 07:15 33.593018 -118.012437 322 6020ft 209kts
11-May-19 07:16 33.639645 -118.064567 316 6001ft 242kts
11-May-19 07:17 33.687343 -118.123789 315 6001ft 248kts
11-May-19 07:18 33.735482 -118.183942 314 6009ft 251kts
11-May-19 07:19 33.784181 -118.244933 313 6033ft 252kts
11-May-19 07:20 33.832933 -118.306104 313 6031ft 253kts
11-May-19 07:21 33.881680 -118.367371 313 6031ft 254kts
11-May-19 07:22 33.930055 -118.429717 306 6031ft 255kts
11-May-19 07:23 33.956236 -118.508682 292 6032ft 255kts
11-May-19 07:24 33.982618 -118.588153 291 6031ft 255kts
11-May-19 07:25 34.008131 -118.667784 291 6032ft 255kts
11-May-19 07:26 34.033528 -118.747759 291 6030ft 255kts
11-May-19 07:27 34.056529 -118.828816 287 6033ft 256kts
11-May-19 07:28 34.078068 -118.910716 288 6030ft 256kts
11-May-19 07:29 34.099792 -118.992450 288 6028ft 256kts
11-May-19 07:30 34.124939 -119.072861 299 6032ft 255kts
11-May-19 07:31 34.156849 -119.149223 298 6030ft 254kts
11-May-19 07:32 34.188705 -119.225397 298 6027ft 254kts
11-May-19 07:33 34.220588 -119.301689 298 6027ft 255kts
11-May-19 07:34 34.250917 -119.379319 299 6020ft 255kts
11-May-19 07:35 34.283802 -119.455378 299 6018ft 255kts
11-May-19 07:36 34.316165 -119.531861 296 6016ft 256kts
11-May-19 07:37 34.346075 -119.610257 299 5872ft 256kts
11-May-19 07:38 34.375491 -119.685289 296 3954ft 206kts
11-May-19 07:39 34.396059 -119.739479 295 1705ft 155kts
11-May-19 07:40 34.411189 -119.779795 295 992ft 111kts
11-May-19 07:41 34.423120 -119.813355 291 358ft 107kts
11-May-19 07:42 34.427536 -119.840843 275 13ft 30kts
11-May-19 07:43 34.428814 -119.842064 344 13ft 11kts
11-May-19 07:44 34.431636 -119.836960 344 13ft 7kts
11-May-19 07:46 34.432105 -119.837312 338 13ft 0kts

Navigation Log

Ident Type
Flight plan parsing failed, navigation log unavailable